sensor_id;sensor_type;location;lat;lon;timestamp;P1;durP1;ratioP1;P2;durP2;ratioP2
18076;SDS011;9165;45.714;11.362;2022-10-17T00:00:37;67.20;;;33.87;;
18076;SDS011;9165;45.714;11.362;2022-10-17T00:03:05;59.37;;;32.47;;
18076;SDS011;9165;45.714;11.362;2022-10-17T00:05:32;59.97;;;32.73;;
18076;SDS011;9165;45.714;11.362;2022-10-17T00:07:59;58.63;;;34.43;;
18076;SDS011;9165;45.714;11.362;2022-10-17T00:10:25;61.53;;;32.80;;
18076;SDS011;9165;45.714;11.362;2022-10-17T00:12:52;71.30;;;35.13;;
18076;SDS011;9165;45.714;11.362;2022-10-17T00:15:19;62.07;;;34.10;;
18076;SDS011;9165;45.714;11.362;2022-10-17T00:17:45;57.73;;;35.50;;
18076;SDS011;9165;45.714;11.362;2022-10-17T00:20:14;64.87;;;33.53;;
18076;SDS011;9165;45.714;11.362;2022-10-17T00:22:40;59.30;;;34.03;;
18076;SDS011;9165;45.714;11.362;2022-10-17T00:25:07;66.70;;;34.67;;
18076;SDS011;9165;45.714;11.362;2022-10-17T00:27:34;61.37;;;33.47;;
18076;SDS011;9165;45.714;11.362;2022-10-17T00:30:01;68.83;;;35.03;;
18076;SDS011;9165;45.714;11.362;2022-10-17T00:32:27;63.00;;;33.13;;
18076;SDS011;9165;45.714;11.362;2022-10-17T00:34:54;63.83;;;33.67;;
18076;SDS011;9165;45.714;11.362;2022-10-17T00:37:22;61.30;;;32.33;;
18076;SDS011;9165;45.714;11.362;2022-10-17T00:39:48;58.77;;;31.67;;
18076;SDS011;9165;45.714;11.362;2022-10-17T00:42:15;59.40;;;32.37;;
18076;SDS011;9165;45.714;11.362;2022-10-17T00:45:03;59.83;;;31.67;;
18076;SDS011;9165;45.714;11.362;2022-10-17T00:47:30;61.83;;;33.17;;
18076;SDS011;9165;45.714;11.362;2022-10-17T00:49:58;59.90;;;32.30;;
18076;SDS011;9165;45.714;11.362;2022-10-17T00:52:26;66.33;;;34.40;;
18076;SDS011;9165;45.714;11.362;2022-10-17T00:54:55;60.40;;;32.93;;
18076;SDS011;9165;45.714;11.362;2022-10-17T00:57:22;65.47;;;34.87;;
18076;SDS011;9165;45.714;11.362;2022-10-17T00:59:50;57.87;;;32.13;;
18076;SDS011;9165;45.714;11.362;2022-10-17T01:02:18;60.63;;;33.30;;
18076;SDS011;9165;45.714;11.362;2022-10-17T01:04:46;63.43;;;32.87;;
18076;SDS011;9165;45.714;11.362;2022-10-17T01:07:14;65.93;;;33.87;;
18076;SDS011;9165;45.714;11.362;2022-10-17T01:09:42;61.40;;;33.87;;
18076;SDS011;9165;45.714;11.362;2022-10-17T01:12:11;57.57;;;32.53;;
18076;SDS011;9165;45.714;11.362;2022-10-17T01:14:42;56.73;;;32.40;;
18076;SDS011;9165;45.714;11.362;2022-10-17T01:17:12;66.20;;;32.93;;
18076;SDS011;9165;45.714;11.362;2022-10-17T01:19:47;55.60;;;32.70;;
18076;SDS011;9165;45.714;11.362;2022-10-17T01:22:17;61.27;;;31.93;;
18076;SDS011;9165;45.714;11.362;2022-10-17T01:24:53;61.47;;;33.63;;
18076;SDS011;9165;45.714;11.362;2022-10-17T01:27:30;54.10;;;31.17;;
18076;SDS011;9165;45.714;11.362;2022-10-17T01:30:09;74.20;;;34.27;;
18076;SDS011;9165;45.714;11.362;2022-10-17T01:32:43;60.40;;;31.43;;
18076;SDS011;9165;45.714;11.362;2022-10-17T01:35:11;54.73;;;32.20;;
18076;SDS011;9165;45.714;11.362;2022-10-17T01:37:39;58.73;;;30.30;;
18076;SDS011;9165;45.714;11.362;2022-10-17T01:40:09;63.07;;;31.73;;
18076;SDS011;9165;45.714;11.362;2022-10-17T01:42:40;59.50;;;32.07;;
18076;SDS011;9165;45.714;11.362;2022-10-17T01:45:09;60.23;;;34.20;;
18076;SDS011;9165;45.714;11.362;2022-10-17T01:47:37;55.63;;;31.73;;
18076;SDS011;9165;45.714;11.362;2022-10-17T01:50:08;60.97;;;34.07;;
18076;SDS011;9165;45.714;11.362;2022-10-17T01:52:37;55.57;;;32.33;;
18076;SDS011;9165;45.714;11.362;2022-10-17T01:55:05;59.27;;;31.57;;
18076;SDS011;9165;45.714;11.362;2022-10-17T01:57:35;63.40;;;32.93;;
18076;SDS011;9165;45.714;11.362;2022-10-17T02:00:04;61.77;;;33.00;;
18076;SDS011;9165;45.714;11.362;2022-10-17T02:02:31;61.27;;;32.53;;
18076;SDS011;9165;45.714;11.362;2022-10-17T02:04:58;63.23;;;33.57;;
18076;SDS011;9165;45.714;11.362;2022-10-17T02:07:28;61.60;;;31.57;;
18076;SDS011;9165;45.714;11.362;2022-10-17T02:09:55;62.70;;;33.13;;
18076;SDS011;9165;45.714;11.362;2022-10-17T02:12:32;62.50;;;33.97;;
18076;SDS011;9165;45.714;11.362;2022-10-17T02:15:08;63.60;;;32.70;;
18076;SDS011;9165;45.714;11.362;2022-10-17T02:17:39;66.37;;;32.97;;
18076;SDS011;9165;45.714;11.362;2022-10-17T02:20:09;61.10;;;31.37;;
18076;SDS011;9165;45.714;11.362;2022-10-17T02:22:42;63.83;;;33.33;;
18076;SDS011;9165;45.714;11.362;2022-10-17T02:25:13;55.97;;;31.03;;
18076;SDS011;9165;45.714;11.362;2022-10-17T02:27:47;69.47;;;34.57;;
18076;SDS011;9165;45.714;11.362;2022-10-17T02:30:19;63.10;;;32.30;;
18076;SDS011;9165;45.714;11.362;2022-10-17T02:32:49;58.53;;;31.60;;
18076;SDS011;9165;45.714;11.362;2022-10-17T02:35:17;64.30;;;33.43;;
18076;SDS011;9165;45.714;11.362;2022-10-17T02:37:46;59.93;;;32.80;;
18076;SDS011;9165;45.714;11.362;2022-10-17T02:40:14;64.87;;;34.87;;
18076;SDS011;9165;45.714;11.362;2022-10-17T02:42:42;59.50;;;33.23;;
18076;SDS011;9165;45.714;11.362;2022-10-17T02:45:10;63.53;;;32.60;;
18076;SDS011;9165;45.714;11.362;2022-10-17T02:47:38;67.70;;;32.57;;
18076;SDS011;9165;45.714;11.362;2022-10-17T02:50:09;65.97;;;33.57;;
18076;SDS011;9165;45.714;11.362;2022-10-17T02:52:36;67.80;;;33.23;;
18076;SDS011;9165;45.714;11.362;2022-10-17T02:55:08;54.50;;;32.23;;
18076;SDS011;9165;45.714;11.362;2022-10-17T02:57:37;65.47;;;32.67;;
18076;SDS011;9165;45.714;11.362;2022-10-17T03:00:06;58.40;;;31.87;;
18076;SDS011;9165;45.714;11.362;2022-10-17T03:02:37;52.90;;;30.90;;
18076;SDS011;9165;45.714;11.362;2022-10-17T03:05:04;59.83;;;32.23;;
18076;SDS011;9165;45.714;11.362;2022-10-17T03:07:31;63.97;;;32.73;;
18076;SDS011;9165;45.714;11.362;2022-10-17T03:09:58;59.47;;;32.87;;
18076;SDS011;9165;45.714;11.362;2022-10-17T03:12:26;62.13;;;33.40;;
18076;SDS011;9165;45.714;11.362;2022-10-17T03:14:52;65.17;;;33.10;;
18076;SDS011;9165;45.714;11.362;2022-10-17T03:17:19;66.03;;;32.87;;
18076;SDS011;9165;45.714;11.362;2022-10-17T03:19:45;65.10;;;33.43;;
18076;SDS011;9165;45.714;11.362;2022-10-17T03:22:12;61.77;;;32.03;;
18076;SDS011;9165;45.714;11.362;2022-10-17T03:24:38;63.60;;;33.60;;
18076;SDS011;9165;45.714;11.362;2022-10-17T03:27:05;58.73;;;31.10;;
18076;SDS011;9165;45.714;11.362;2022-10-17T03:29:33;63.77;;;32.27;;
18076;SDS011;9165;45.714;11.362;2022-10-17T03:31:59;63.87;;;32.40;;
18076;SDS011;9165;45.714;11.362;2022-10-17T03:34:26;63.27;;;33.50;;
18076;SDS011;9165;45.714;11.362;2022-10-17T03:36:52;57.53;;;31.67;;
18076;SDS011;9165;45.714;11.362;2022-10-17T03:39:19;52.60;;;30.23;;
18076;SDS011;9165;45.714;11.362;2022-10-17T03:41:45;60.40;;;32.47;;
18076;SDS011;9165;45.714;11.362;2022-10-17T03:44:12;60.57;;;32.37;;
18076;SDS011;9165;45.714;11.362;2022-10-17T03:46:40;66.90;;;32.57;;
18076;SDS011;9165;45.714;11.362;2022-10-17T03:49:07;62.43;;;31.47;;
18076;SDS011;9165;45.714;11.362;2022-10-17T03:51:34;58.83;;;31.60;;
18076;SDS011;9165;45.714;11.362;2022-10-17T03:54:00;62.63;;;32.43;;
18076;SDS011;9165;45.714;11.362;2022-10-17T03:56:27;69.70;;;31.23;;
18076;SDS011;9165;45.714;11.362;2022-10-17T03:58:54;61.63;;;32.43;;
18076;SDS011;9165;45.714;11.362;2022-10-17T04:01:21;57.87;;;32.10;;
18076;SDS011;9165;45.714;11.362;2022-10-17T04:03:49;55.87;;;30.73;;
18076;SDS011;9165;45.714;11.362;2022-10-17T04:06:15;58.07;;;31.30;;
18076;SDS011;9165;45.714;11.362;2022-10-17T04:08:42;61.10;;;33.53;;
18076;SDS011;9165;45.714;11.362;2022-10-17T04:11:09;64.17;;;31.57;;
18076;SDS011;9165;45.714;11.362;2022-10-17T04:13:37;57.53;;;32.03;;
18076;SDS011;9165;45.714;11.362;2022-10-17T04:16:04;57.17;;;31.97;;
18076;SDS011;9165;45.714;11.362;2022-10-17T04:18:31;61.00;;;31.47;;
18076;SDS011;9165;45.714;11.362;2022-10-17T04:21:01;54.10;;;30.80;;
18076;SDS011;9165;45.714;11.362;2022-10-17T04:23:28;54.40;;;30.07;;
18076;SDS011;9165;45.714;11.362;2022-10-17T04:25:55;62.20;;;31.07;;
18076;SDS011;9165;45.714;11.362;2022-10-17T04:28:22;57.30;;;31.50;;
18076;SDS011;9165;45.714;11.362;2022-10-17T04:30:54;63.13;;;32.93;;
18076;SDS011;9165;45.714;11.362;2022-10-17T04:33:20;58.03;;;31.80;;
18076;SDS011;9165;45.714;11.362;2022-10-17T04:35:53;56.13;;;30.57;;
18076;SDS011;9165;45.714;11.362;2022-10-17T04:38:21;60.20;;;30.33;;
18076;SDS011;9165;45.714;11.362;2022-10-17T04:40:48;61.33;;;31.33;;
18076;SDS011;9165;45.714;11.362;2022-10-17T04:43:14;58.93;;;29.90;;
18076;SDS011;9165;45.714;11.362;2022-10-17T04:45:41;51.43;;;31.37;;
18076;SDS011;9165;45.714;11.362;2022-10-17T04:48:07;63.67;;;31.37;;
18076;SDS011;9165;45.714;11.362;2022-10-17T04:50:34;61.40;;;30.83;;
18076;SDS011;9165;45.714;11.362;2022-10-17T04:53:00;56.90;;;29.13;;
18076;SDS011;9165;45.714;11.362;2022-10-17T04:55:28;60.40;;;31.17;;
18076;SDS011;9165;45.714;11.362;2022-10-17T04:57:55;54.27;;;29.27;;
18076;SDS011;9165;45.714;11.362;2022-10-17T05:00:22;55.30;;;30.73;;
18076;SDS011;9165;45.714;11.362;2022-10-17T05:02:48;52.03;;;29.27;;
18076;SDS011;9165;45.714;11.362;2022-10-17T05:05:15;49.10;;;28.13;;
18076;SDS011;9165;45.714;11.362;2022-10-17T05:07:41;53.93;;;28.00;;
18076;SDS011;9165;45.714;11.362;2022-10-17T05:10:08;56.07;;;29.77;;
18076;SDS011;9165;45.714;11.362;2022-10-17T05:12:36;53.13;;;28.37;;
18076;SDS011;9165;45.714;11.362;2022-10-17T05:15:03;57.50;;;28.60;;
18076;SDS011;9165;45.714;11.362;2022-10-17T05:17:29;50.37;;;27.73;;
18076;SDS011;9165;45.714;11.362;2022-10-17T05:19:56;50.47;;;25.13;;
18076;SDS011;9165;45.714;11.362;2022-10-17T05:22:23;45.87;;;25.97;;
18076;SDS011;9165;45.714;11.362;2022-10-17T05:24:49;54.47;;;29.37;;
18076;SDS011;9165;45.714;11.362;2022-10-17T05:27:16;57.87;;;28.13;;
18076;SDS011;9165;45.714;11.362;2022-10-17T05:29:44;52.07;;;28.30;;
18076;SDS011;9165;45.714;11.362;2022-10-17T05:32:10;52.10;;;27.77;;
18076;SDS011;9165;45.714;11.362;2022-10-17T05:34:37;53.33;;;28.03;;
18076;SDS011;9165;45.714;11.362;2022-10-17T05:37:03;51.87;;;29.17;;
18076;SDS011;9165;45.714;11.362;2022-10-17T05:39:30;44.77;;;26.43;;
18076;SDS011;9165;45.714;11.362;2022-10-17T05:41:56;53.73;;;27.10;;
18076;SDS011;9165;45.714;11.362;2022-10-17T05:44:23;52.80;;;28.63;;
18076;SDS011;9165;45.714;11.362;2022-10-17T05:46:51;53.73;;;26.87;;
18076;SDS011;9165;45.714;11.362;2022-10-17T05:49:18;51.30;;;27.83;;
18076;SDS011;9165;45.714;11.362;2022-10-17T05:51:44;51.70;;;27.27;;
18076;SDS011;9165;45.714;11.362;2022-10-17T05:54:11;52.90;;;25.97;;
18076;SDS011;9165;45.714;11.362;2022-10-17T05:56:37;53.43;;;27.37;;
18076;SDS011;9165;45.714;11.362;2022-10-17T05:59:04;50.83;;;27.83;;
18076;SDS011;9165;45.714;11.362;2022-10-17T06:01:30;48.40;;;27.40;;
18076;SDS011;9165;45.714;11.362;2022-10-17T06:03:58;53.97;;;28.90;;
18076;SDS011;9165;45.714;11.362;2022-10-17T06:06:25;54.83;;;27.93;;
18076;SDS011;9165;45.714;11.362;2022-10-17T06:08:51;53.23;;;29.00;;
18076;SDS011;9165;45.714;11.362;2022-10-17T06:11:18;52.20;;;28.37;;
18076;SDS011;9165;45.714;11.362;2022-10-17T06:13:44;51.73;;;27.13;;
18076;SDS011;9165;45.714;11.362;2022-10-17T06:16:11;54.70;;;27.83;;
18076;SDS011;9165;45.714;11.362;2022-10-17T06:18:37;43.93;;;24.93;;
18076;SDS011;9165;45.714;11.362;2022-10-17T06:21:06;51.87;;;27.67;;
18076;SDS011;9165;45.714;11.362;2022-10-17T06:23:33;51.20;;;27.33;;
18076;SDS011;9165;45.714;11.362;2022-10-17T06:26:00;52.80;;;28.27;;
18076;SDS011;9165;45.714;11.362;2022-10-17T06:28:26;52.33;;;29.37;;
18076;SDS011;9165;45.714;11.362;2022-10-17T06:30:53;54.47;;;28.70;;
18076;SDS011;9165;45.714;11.362;2022-10-17T06:33:20;52.37;;;28.20;;
18076;SDS011;9165;45.714;11.362;2022-10-17T06:35:49;50.23;;;27.50;;
18076;SDS011;9165;45.714;11.362;2022-10-17T06:38:17;49.23;;;27.00;;
18076;SDS011;9165;45.714;11.362;2022-10-17T06:40:44;51.87;;;28.53;;
18076;SDS011;9165;45.714;11.362;2022-10-17T06:43:11;66.00;;;29.20;;
18076;SDS011;9165;45.714;11.362;2022-10-17T06:45:37;54.57;;;28.20;;
18076;SDS011;9165;45.714;11.362;2022-10-17T06:48:04;55.17;;;30.13;;
18076;SDS011;9165;45.714;11.362;2022-10-17T06:50:31;53.70;;;28.93;;
18076;SDS011;9165;45.714;11.362;2022-10-17T06:52:57;52.27;;;28.70;;
18076;SDS011;9165;45.714;11.362;2022-10-17T06:55:25;53.83;;;28.47;;
18076;SDS011;9165;45.714;11.362;2022-10-17T06:57:53;61.43;;;29.27;;
18076;SDS011;9165;45.714;11.362;2022-10-17T07:00:19;57.17;;;29.93;;
18076;SDS011;9165;45.714;11.362;2022-10-17T07:02:47;54.13;;;28.67;;
18076;SDS011;9165;45.714;11.362;2022-10-17T07:05:14;54.40;;;28.43;;
18076;SDS011;9165;45.714;11.362;2022-10-17T07:07:40;48.53;;;27.07;;
18076;SDS011;9165;45.714;11.362;2022-10-17T07:10:07;50.57;;;26.93;;
18076;SDS011;9165;45.714;11.362;2022-10-17T07:12:35;50.30;;;27.30;;
18076;SDS011;9165;45.714;11.362;2022-10-17T07:15:02;49.13;;;28.50;;
18076;SDS011;9165;45.714;11.362;2022-10-17T07:17:29;49.67;;;26.60;;
18076;SDS011;9165;45.714;11.362;2022-10-17T07:19:56;55.20;;;28.23;;
18076;SDS011;9165;45.714;11.362;2022-10-17T07:22:22;54.70;;;28.30;;
18076;SDS011;9165;45.714;11.362;2022-10-17T07:24:49;53.17;;;28.13;;
18076;SDS011;9165;45.714;11.362;2022-10-17T07:27:16;44.60;;;25.97;;
18076;SDS011;9165;45.714;11.362;2022-10-17T07:29:44;50.70;;;29.37;;
18076;SDS011;9165;45.714;11.362;2022-10-17T07:32:11;47.90;;;28.30;;
18076;SDS011;9165;45.714;11.362;2022-10-17T07:34:37;50.77;;;28.60;;
18076;SDS011;9165;45.714;11.362;2022-10-17T07:37:04;52.13;;;27.30;;
18076;SDS011;9165;45.714;11.362;2022-10-17T07:39:31;47.73;;;28.13;;
18076;SDS011;9165;45.714;11.362;2022-10-17T07:41:59;48.87;;;28.60;;
18076;SDS011;9165;45.714;11.362;2022-10-17T07:44:26;51.23;;;26.33;;
18076;SDS011;9165;45.714;11.362;2022-10-17T07:46:54;57.63;;;30.47;;
18076;SDS011;9165;45.714;11.362;2022-10-17T07:49:20;51.00;;;28.90;;
18076;SDS011;9165;45.714;11.362;2022-10-17T07:51:47;51.23;;;30.47;;
18076;SDS011;9165;45.714;11.362;2022-10-17T07:54:14;48.53;;;28.87;;
18076;SDS011;9165;45.714;11.362;2022-10-17T07:56:40;52.70;;;28.80;;
18076;SDS011;9165;45.714;11.362;2022-10-17T07:59:07;50.27;;;29.73;;
18076;SDS011;9165;45.714;11.362;2022-10-17T08:01:34;51.83;;;28.93;;
18076;SDS011;9165;45.714;11.362;2022-10-17T08:04:02;54.77;;;28.83;;
18076;SDS011;9165;45.714;11.362;2022-10-17T08:06:29;51.27;;;30.57;;
18076;SDS011;9165;45.714;11.362;2022-10-17T08:08:55;43.77;;;28.63;;
18076;SDS011;9165;45.714;11.362;2022-10-17T08:11:22;44.03;;;28.67;;
18076;SDS011;9165;45.714;11.362;2022-10-17T08:13:49;48.70;;;31.43;;
18076;SDS011;9165;45.714;11.362;2022-10-17T08:16:16;47.60;;;30.37;;
18076;SDS011;9165;45.714;11.362;2022-10-17T08:18:42;54.83;;;29.93;;
18076;SDS011;9165;45.714;11.362;2022-10-17T08:21:11;50.67;;;31.43;;
18076;SDS011;9165;45.714;11.362;2022-10-17T08:23:38;58.13;;;32.70;;
18076;SDS011;9165;45.714;11.362;2022-10-17T08:26:05;55.03;;;33.67;;
18076;SDS011;9165;45.714;11.362;2022-10-17T08:28:34;50.43;;;34.00;;
18076;SDS011;9165;45.714;11.362;2022-10-17T08:31:01;54.13;;;33.57;;
18076;SDS011;9165;45.714;11.362;2022-10-17T08:33:28;49.47;;;32.70;;
18076;SDS011;9165;45.714;11.362;2022-10-17T08:35:56;56.40;;;36.10;;
18076;SDS011;9165;45.714;11.362;2022-10-17T08:38:24;58.10;;;37.40;;
18076;SDS011;9165;45.714;11.362;2022-10-17T08:40:51;68.53;;;41.10;;
18076;SDS011;9165;45.714;11.362;2022-10-17T08:43:22;61.60;;;38.73;;
18076;SDS011;9165;45.714;11.362;2022-10-17T08:45:51;64.33;;;39.20;;
18076;SDS011;9165;45.714;11.362;2022-10-17T08:48:18;61.83;;;37.93;;
18076;SDS011;9165;45.714;11.362;2022-10-17T08:50:47;66.20;;;39.43;;
18076;SDS011;9165;45.714;11.362;2022-10-17T08:53:17;63.83;;;39.10;;
18076;SDS011;9165;45.714;11.362;2022-10-17T08:55:47;62.70;;;38.93;;
18076;SDS011;9165;45.714;11.362;2022-10-17T08:58:14;66.53;;;40.83;;
18076;SDS011;9165;45.714;11.362;2022-10-17T09:00:44;63.50;;;40.73;;
18076;SDS011;9165;45.714;11.362;2022-10-17T09:03:17;67.97;;;41.17;;
18076;SDS011;9165;45.714;11.362;2022-10-17T09:05:48;73.67;;;42.57;;
18076;SDS011;9165;45.714;11.362;2022-10-17T09:08:20;68.53;;;40.00;;
18076;SDS011;9165;45.714;11.362;2022-10-17T09:10:53;72.90;;;40.80;;
18076;SDS011;9165;45.714;11.362;2022-10-17T09:13:23;63.23;;;39.67;;
18076;SDS011;9165;45.714;11.362;2022-10-17T09:15:56;58.20;;;38.50;;
18076;SDS011;9165;45.714;11.362;2022-10-17T09:18:28;66.00;;;40.37;;
18076;SDS011;9165;45.714;11.362;2022-10-17T09:20:58;60.87;;;39.07;;
18076;SDS011;9165;45.714;11.362;2022-10-17T09:23:27;59.90;;;39.50;;
18076;SDS011;9165;45.714;11.362;2022-10-17T09:25:57;63.47;;;38.97;;
18076;SDS011;9165;45.714;11.362;2022-10-17T09:28:24;58.07;;;37.57;;
18076;SDS011;9165;45.714;11.362;2022-10-17T09:30:54;60.53;;;37.97;;
18076;SDS011;9165;45.714;11.362;2022-10-17T09:33:24;57.00;;;35.73;;
18076;SDS011;9165;45.714;11.362;2022-10-17T09:35:52;63.43;;;37.23;;
18076;SDS011;9165;45.714;11.362;2022-10-17T09:38:20;60.83;;;38.77;;
18076;SDS011;9165;45.714;11.362;2022-10-17T09:40:49;60.70;;;36.93;;
18076;SDS011;9165;45.714;11.362;2022-10-17T09:43:18;69.37;;;38.50;;
18076;SDS011;9165;45.714;11.362;2022-10-17T09:45:48;64.90;;;38.63;;
18076;SDS011;9165;45.714;11.362;2022-10-17T09:48:20;58.10;;;37.63;;
18076;SDS011;9165;45.714;11.362;2022-10-17T09:50:48;56.97;;;36.63;;
18076;SDS011;9165;45.714;11.362;2022-10-17T09:53:20;60.43;;;38.30;;
18076;SDS011;9165;45.714;11.362;2022-10-17T09:55:48;57.30;;;36.57;;
18076;SDS011;9165;45.714;11.362;2022-10-17T09:58:17;54.53;;;36.97;;
18076;SDS011;9165;45.714;11.362;2022-10-17T10:00:47;58.77;;;36.67;;
18076;SDS011;9165;45.714;11.362;2022-10-17T10:03:15;56.03;;;35.67;;
18076;SDS011;9165;45.714;11.362;2022-10-17T10:05:42;59.60;;;34.80;;
18076;SDS011;9165;45.714;11.362;2022-10-17T10:08:17;55.80;;;36.90;;
18076;SDS011;9165;45.714;11.362;2022-10-17T10:10:44;60.40;;;36.53;;
18076;SDS011;9165;45.714;11.362;2022-10-17T10:13:15;61.53;;;39.07;;
18076;SDS011;9165;45.714;11.362;2022-10-17T10:15:46;55.13;;;35.03;;
18076;SDS011;9165;45.714;11.362;2022-10-17T10:18:26;53.43;;;37.40;;
18076;SDS011;9165;45.714;11.362;2022-10-17T10:21:02;55.17;;;36.03;;
18076;SDS011;9165;45.714;11.362;2022-10-17T10:23:28;67.47;;;36.13;;
18076;SDS011;9165;45.714;11.362;2022-10-17T10:25:55;55.70;;;32.47;;
18076;SDS011;9165;45.714;11.362;2022-10-17T10:28:24;49.37;;;34.03;;
18076;SDS011;9165;45.714;11.362;2022-10-17T10:30:53;50.50;;;33.90;;
18076;SDS011;9165;45.714;11.362;2022-10-17T10:33:20;50.67;;;34.03;;
18076;SDS011;9165;45.714;11.362;2022-10-17T10:35:51;51.87;;;33.90;;
18076;SDS011;9165;45.714;11.362;2022-10-17T10:38:19;43.60;;;29.87;;
18076;SDS011;9165;45.714;11.362;2022-10-17T10:40:46;58.50;;;35.87;;
18076;SDS011;9165;45.714;11.362;2022-10-17T10:43:20;50.20;;;33.03;;
18076;SDS011;9165;45.714;11.362;2022-10-17T10:45:48;50.40;;;31.67;;
18076;SDS011;9165;45.714;11.362;2022-10-17T10:48:20;53.57;;;34.77;;
18076;SDS011;9165;45.714;11.362;2022-10-17T10:50:47;48.83;;;34.30;;
18076;SDS011;9165;45.714;11.362;2022-10-17T10:53:19;46.63;;;31.53;;
18076;SDS011;9165;45.714;11.362;2022-10-17T10:55:50;46.50;;;31.87;;
18076;SDS011;9165;45.714;11.362;2022-10-17T10:58:31;50.10;;;31.37;;
18076;SDS011;9165;45.714;11.362;2022-10-17T11:00:59;56.93;;;38.47;;
18076;SDS011;9165;45.714;11.362;2022-10-17T11:03:31;45.67;;;31.63;;
18076;SDS011;9165;45.714;11.362;2022-10-17T11:05:59;43.93;;;32.47;;
18076;SDS011;9165;45.714;11.362;2022-10-17T11:08:30;42.77;;;32.93;;
18076;SDS011;9165;45.714;11.362;2022-10-17T11:10:59;45.40;;;31.90;;
18076;SDS011;9165;45.714;11.362;2022-10-17T11:13:30;47.00;;;31.47;;
18076;SDS011;9165;45.714;11.362;2022-10-17T11:15:58;48.57;;;31.33;;
18076;SDS011;9165;45.714;11.362;2022-10-17T11:18:27;43.93;;;30.23;;
18076;SDS011;9165;45.714;11.362;2022-10-17T11:20:58;40.30;;;29.77;;
18076;SDS011;9165;45.714;11.362;2022-10-17T11:23:27;42.63;;;29.63;;
18076;SDS011;9165;45.714;11.362;2022-10-17T11:25:56;46.23;;;31.10;;
18076;SDS011;9165;45.714;11.362;2022-10-17T11:28:23;39.13;;;28.43;;
18076;SDS011;9165;45.714;11.362;2022-10-17T11:30:52;34.47;;;25.20;;
18076;SDS011;9165;45.714;11.362;2022-10-17T11:33:25;32.07;;;24.30;;
18076;SDS011;9165;45.714;11.362;2022-10-17T11:35:53;33.87;;;24.13;;
18076;SDS011;9165;45.714;11.362;2022-10-17T11:38:26;34.60;;;25.63;;
18076;SDS011;9165;45.714;11.362;2022-10-17T11:40:55;35.00;;;27.43;;
18076;SDS011;9165;45.714;11.362;2022-10-17T11:43:24;38.17;;;27.00;;
18076;SDS011;9165;45.714;11.362;2022-10-17T11:45:54;36.33;;;24.33;;
18076;SDS011;9165;45.714;11.362;2022-10-17T11:48:22;34.15;;;25.20;;
18076;SDS011;9165;45.714;11.362;2022-10-17T11:50:50;36.65;;;27.02;;
18076;SDS011;9165;45.714;11.362;2022-10-17T11:53:20;38.28;;;27.25;;
18076;SDS011;9165;45.714;11.362;2022-10-17T11:55:49;33.72;;;25.92;;
18076;SDS011;9165;45.714;11.362;2022-10-17T11:58:21;35.10;;;25.08;;
18076;SDS011;9165;45.714;11.362;2022-10-17T12:00:51;39.88;;;26.40;;
18076;SDS011;9165;45.714;11.362;2022-10-17T12:03:27;36.25;;;26.05;;
18076;SDS011;9165;45.714;11.362;2022-10-17T12:05:56;37.40;;;26.17;;
18076;SDS011;9165;45.714;11.362;2022-10-17T12:08:27;34.92;;;27.58;;
18076;SDS011;9165;45.714;11.362;2022-10-17T12:10:58;43.95;;;26.90;;
18076;SDS011;9165;45.714;11.362;2022-10-17T12:19:12;37.30;;;27.17;;
18076;SDS011;9165;45.714;11.362;2022-10-17T12:21:52;38.87;;;27.13;;
18076;SDS011;9165;45.714;11.362;2022-10-17T12:24:21;39.40;;;26.10;;
18076;SDS011;9165;45.714;11.362;2022-10-17T12:26:52;45.10;;;27.23;;
18076;SDS011;9165;45.714;11.362;2022-10-17T12:29:22;36.37;;;27.63;;
18076;SDS011;9165;45.714;11.362;2022-10-17T12:31:51;43.77;;;26.87;;
18076;SDS011;9165;45.714;11.362;2022-10-17T12:34:17;36.07;;;27.27;;
18076;SDS011;9165;45.714;11.362;2022-10-17T12:36:45;35.93;;;26.17;;
18076;SDS011;9165;45.714;11.362;2022-10-17T12:42:32;36.37;;;23.40;;
18076;SDS011;9165;45.714;11.362;2022-10-17T12:45:11;30.20;;;23.90;;
18076;SDS011;9165;45.714;11.362;2022-10-17T12:47:50;30.73;;;21.20;;
18076;SDS011;9165;45.714;11.362;2022-10-17T12:53:03;35.37;;;23.80;;
18076;SDS011;9165;45.714;11.362;2022-10-17T12:55:31;33.23;;;22.90;;
18076;SDS011;9165;45.714;11.362;2022-10-17T12:58:00;33.90;;;23.67;;
18076;SDS011;9165;45.714;11.362;2022-10-17T13:00:30;30.73;;;22.87;;
18076;SDS011;9165;45.714;11.362;2022-10-17T13:03:01;30.37;;;21.80;;
18076;SDS011;9165;45.714;11.362;2022-10-17T13:05:28;32.07;;;22.50;;
18076;SDS011;9165;45.714;11.362;2022-10-17T13:07:56;37.40;;;23.13;;
18076;SDS011;9165;45.714;11.362;2022-10-17T13:10:25;34.23;;;22.13;;
18076;SDS011;9165;45.714;11.362;2022-10-17T13:12:55;33.73;;;23.43;;
18076;SDS011;9165;45.714;11.362;2022-10-17T13:15:26;30.60;;;23.30;;
18076;SDS011;9165;45.714;11.362;2022-10-17T13:17:56;39.07;;;26.03;;
18076;SDS011;9165;45.714;11.362;2022-10-17T13:20:24;37.77;;;24.17;;
18076;SDS011;9165;45.714;11.362;2022-10-17T13:22:52;41.50;;;24.90;;
18076;SDS011;9165;45.714;11.362;2022-10-17T13:25:19;38.67;;;25.00;;
18076;SDS011;9165;45.714;11.362;2022-10-17T13:27:46;35.93;;;24.70;;
18076;SDS011;9165;45.714;11.362;2022-10-17T13:32:58;36.57;;;24.37;;
18076;SDS011;9165;45.714;11.362;2022-10-17T13:35:26;34.30;;;24.40;;
18076;SDS011;9165;45.714;11.362;2022-10-17T13:37:53;32.00;;;22.37;;
18076;SDS011;9165;45.714;11.362;2022-10-17T13:40:21;32.80;;;22.37;;
18076;SDS011;9165;45.714;11.362;2022-10-17T13:42:48;30.23;;;22.80;;
18076;SDS011;9165;45.714;11.362;2022-10-17T13:45:16;30.47;;;21.37;;
18076;SDS011;9165;45.714;11.362;2022-10-17T13:47:44;30.83;;;23.40;;
18076;SDS011;9165;45.714;11.362;2022-10-17T13:50:18;33.63;;;23.60;;
18076;SDS011;9165;45.714;11.362;2022-10-17T13:52:45;33.47;;;23.33;;
18076;SDS011;9165;45.714;11.362;2022-10-17T13:55:13;34.47;;;24.27;;
18076;SDS011;9165;45.714;11.362;2022-10-17T13:57:41;36.60;;;23.27;;
18076;SDS011;9165;45.714;11.362;2022-10-17T14:00:10;33.90;;;25.57;;
18076;SDS011;9165;45.714;11.362;2022-10-17T14:02:40;40.73;;;25.33;;
18076;SDS011;9165;45.714;11.362;2022-10-17T14:05:09;34.27;;;23.37;;
18076;SDS011;9165;45.714;11.362;2022-10-17T14:07:38;32.23;;;23.23;;
18076;SDS011;9165;45.714;11.362;2022-10-17T14:10:06;31.73;;;22.37;;
18076;SDS011;9165;45.714;11.362;2022-10-17T14:12:42;32.13;;;21.70;;
18076;SDS011;9165;45.714;11.362;2022-10-17T14:15:12;34.67;;;24.63;;
18076;SDS011;9165;45.714;11.362;2022-10-17T14:17:39;35.53;;;23.53;;
18076;SDS011;9165;45.714;11.362;2022-10-17T14:20:06;37.80;;;24.77;;
18076;SDS011;9165;45.714;11.362;2022-10-17T14:22:34;35.43;;;23.47;;
18076;SDS011;9165;45.714;11.362;2022-10-17T14:25:03;34.63;;;23.67;;
18076;SDS011;9165;45.714;11.362;2022-10-17T14:27:30;37.60;;;23.23;;
18076;SDS011;9165;45.714;11.362;2022-10-17T14:29:58;35.20;;;22.10;;
18076;SDS011;9165;45.714;11.362;2022-10-17T14:32:27;32.67;;;23.17;;
18076;SDS011;9165;45.714;11.362;2022-10-17T14:34:54;30.13;;;22.23;;
18076;SDS011;9165;45.714;11.362;2022-10-17T14:37:26;31.20;;;22.00;;
18076;SDS011;9165;45.714;11.362;2022-10-17T14:39:55;29.00;;;22.07;;
18076;SDS011;9165;45.714;11.362;2022-10-17T14:42:25;32.83;;;22.63;;